CheckWX is a tool to help pilots better visualize weather data.  It is not intended as a substitute for an official pre-flight weather briefing.

12:30:08 UTC

EHMG METAR
L9-ff-1 Sea
L9-ff-1 Sea, The Netherlands
Current

35 mins ago

EHMG 261155Z AUTO 27013KT 9999 NSC 07/05 Q1030 W///H///
Observed
Mar-26 @ 11:55 UTC
Wind
  • 270° at 13 KTS
Visibility
10,000+ meters
Flight Rules
VFR
Cloud Levels
  • Clear skies
Temperature
C / 45°F
Dewpoint
C / 41°F
Humidity
87%
Altimeter
30.41" Hg
Pressure
1029.91 hPa
Previous

1 hour ago

EHMG 261125Z AUTO 28014KT 9999 FEW046 07/05 Q1030 W///H///
Observed
Mar-26 @ 11:25 UTC
Wind
  • 280° at 14 KTS
Visibility
10,000+ meters
Flight Rules
VFR
Cloud Levels
  • Few at 4,600' AGL
Temperature
C / 45°F
Dewpoint
C / 41°F
Humidity
87%
Altimeter
30.41" Hg
Pressure
1029.91 hPa
Previous

2 hours ago

EHMG 261055Z AUTO 29015KT 9999 FEW044 07/05 Q1030 W///H///
Observed
Mar-26 @ 10:55 UTC
Wind
  • 290° at 15 KTS
Visibility
10,000+ meters
Flight Rules
VFR
Cloud Levels
  • Few at 4,400' AGL
Temperature
C / 45°F
Dewpoint
C / 41°F
Humidity
87%
Altimeter
30.41" Hg
Pressure
1029.91 hPa